Time;durP1;ratioP1;P1;durP2;ratioP2;P2;SDS_P1;SDS_P2;PMS_P1;PMS_P2;Temp;Humidity;BMP_temperature;BMP_pressure;BME280_temperature;BME280_humidity;BME280_pressure;Samples;Min_cycle;Max_cycle;Signal;HPM_P1;HPM_P2
2024/03/07 00:02:05;;;;;;;10.50;6.20;;;;;;;;;;5067472;28;20728;-57
2024/03/07 00:04:31;;;;;;;10.30;6.20;;;;;;;;;;5067398;28;20020;-57
2024/03/07 00:06:57;;;;;;;26.17;9.23;;;;;;;;;;5066678;28;20032;-54
2024/03/07 00:09:24;;;;;;;12.63;9.30;;;;;;;;;;5067504;28;20029;-52
2024/03/07 00:11:50;;;;;;;9.80;5.80;;;;;;;;;;5067142;28;20482;-54
2024/03/07 00:14:16;;;;;;;9.93;5.82;;;;;;;;;;5066877;28;20024;-52
2024/03/07 00:16:42;;;;;;;11.20;7.00;;;;;;;;;;5067179;28;20107;-54
2024/03/07 00:19:08;;;;;;;12.15;6.93;;;;;;;;;;5066651;28;20028;-54
2024/03/07 00:21:34;;;;;;;10.98;6.50;;;;;;;;;;5066621;28;20067;-53
2024/03/07 00:24:00;;;;;;;11.10;6.53;;;;;;;;;;5066322;28;20025;-56
2024/03/07 00:26:26;;;;;;;10.95;8.00;;;;;;;;;;5066867;28;20494;-53
2024/03/07 00:28:52;;;;;;;11.30;8.18;;;;;;;;;;5091844;22;20441;-47
2024/03/07 00:31:18;;;;;;;10.40;6.10;;;;;;;;;;5072443;28;20113;-49
2024/03/07 00:33:45;;;;;;;10.52;6.20;;;;;;;;;;5089534;28;20108;-53
2024/03/07 00:36:12;;;;;;;10.82;6.40;;;;;;;;;;5091492;28;20423;-50
2024/03/07 00:38:38;;;;;;;10.70;6.60;;;;;;;;;;5073093;28;20028;-50
2024/03/07 00:41:04;;;;;;;10.98;7.03;;;;;;;;;;5091454;28;20116;-50
2024/03/07 00:43:30;;;;;;;11.85;8.18;;;;;;;;;;5072912;28;20017;-51
2024/03/07 00:45:56;;;;;;;10.30;6.10;;;;;;;;;;5091250;28;20043;-51
2024/03/07 00:48:24;;;;;;;11.25;6.57;;;;;;;;;;5091908;28;20031;-51
2024/03/07 00:50:50;;;;;;;11.10;6.55;;;;;;;;;;5091653;28;20351;-54
2024/03/07 00:53:16;;;;;;;10.93;7.13;;;;;;;;;;5090976;28;20038;-52
2024/03/07 00:55:43;;;;;;;10.57;6.00;;;;;;;;;;5091492;28;20031;-54
2024/03/07 00:58:10;;;;;;;10.40;6.10;;;;;;;;;;5091354;28;20027;-50
2024/03/07 01:00:36;;;;;;;11.55;6.50;;;;;;;;;;5073212;28;20024;-50
2024/03/07 01:03:02;;;;;;;10.40;6.10;;;;;;;;;;5090657;28;20020;-50
2024/03/07 01:05:28;;;;;;;10.30;6.10;;;;;;;;;;5091380;28;20020;-51
2024/03/07 01:07:55;;;;;;;10.95;6.50;;;;;;;;;;5072617;28;20024;-51
2024/03/07 01:10:22;;;;;;;10.52;6.20;;;;;;;;;;5073000;28;20074;-52
2024/03/07 01:12:49;;;;;;;10.80;6.30;;;;;;;;;;5090510;28;20024;-54
2024/03/07 01:15:15;;;;;;;17.95;9.50;;;;;;;;;;5091200;28;20023;-51
2024/03/07 01:17:41;;;;;;;11.15;6.45;;;;;;;;;;5091085;28;20024;-50
2024/03/07 01:20:08;;;;;;;10.80;6.30;;;;;;;;;;5090945;28;20024;-54
2024/03/07 01:22:35;;;;;;;10.65;6.28;;;;;;;;;;5090456;28;20028;-49
2024/03/07 01:25:01;;;;;;;11.30;6.60;;;;;;;;;;5091126;28;20052;-50
2024/03/07 01:27:27;;;;;;;17.75;8.63;;;;;;;;;;5091074;28;20020;-48
2024/03/07 01:29:53;;;;;;;11.18;6.50;;;;;;;;;;5090769;28;20036;-51
2024/03/07 01:32:19;;;;;;;11.23;6.93;;;;;;;;;;5079164;28;20029;-51
2024/03/07 01:34:45;;;;;;;10.90;6.40;;;;;;;;;;5070701;28;20107;-48
2024/03/07 01:37:11;;;;;;;11.25;6.57;;;;;;;;;;5070501;28;20107;-50
2024/03/07 01:39:37;;;;;;;11.20;6.55;;;;;;;;;;5070935;28;20091;-52
2024/03/07 01:42:04;;;;;;;10.90;6.40;;;;;;;;;;5070225;28;20441;-50
2024/03/07 01:44:31;;;;;;;11.55;6.90;;;;;;;;;;5070266;28;20028;-54
2024/03/07 01:46:59;;;;;;;11.25;6.60;;;;;;;;;;5052935;28;20024;-55
2024/03/07 01:49:25;;;;;;;12.80;9.20;;;;;;;;;;5070601;28;20109;-52
2024/03/07 01:51:51;;;;;;;11.70;6.85;;;;;;;;;;5070321;28;20028;-50
2024/03/07 01:54:17;;;;;;;15.82;10.43;;;;;;;;;;5070122;28;20028;-53
2024/03/07 01:56:43;;;;;;;10.82;6.38;;;;;;;;;;5070311;28;20402;-48
2024/03/07 01:59:10;;;;;;;11.65;6.90;;;;;;;;;;5070265;28;20099;-49
2024/03/07 02:01:37;;;;;;;11.20;6.60;;;;;;;;;;5069970;28;20025;-48
2024/03/07 02:04:03;;;;;;;11.10;6.47;;;;;;;;;;5069801;28;20121;-49
2024/03/07 02:06:29;;;;;;;11.80;7.45;;;;;;;;;;5070419;28;20026;-51
2024/03/07 02:08:55;;;;;;;11.60;6.78;;;;;;;;;;5070103;28;20029;-47
2024/03/07 02:11:23;;;;;;;11.05;6.53;;;;;;;;;;5069906;28;20155;-53
2024/03/07 02:13:49;;;;;;;11.38;6.68;;;;;;;;;;5069543;28;20071;-50
2024/03/07 02:16:15;;;;;;;11.30;6.70;;;;;;;;;;5070121;28;20033;-52
2024/03/07 02:18:41;;;;;;;11.90;6.90;;;;;;;;;;5069829;28;20542;-50
2024/03/07 02:21:11;;;;;;;12.88;7.47;;;;;;;;;;5076053;28;20052;-50
2024/03/07 02:23:37;;;;;;;11.88;6.90;;;;;;;;;;5075822;28;20627;-50
2024/03/07 02:26:03;;;;;;;11.80;6.90;;;;;;;;;;5076475;28;20435;-52
2024/03/07 02:28:29;;;;;;;12.13;7.10;;;;;;;;;;5076519;28;20105;-53
2024/03/07 02:30:56;;;;;;;11.50;6.70;;;;;;;;;;5076629;28;20479;-49
2024/03/07 02:33:23;;;;;;;12.40;7.20;;;;;;;;;;5075960;28;20024;-51
2024/03/07 02:35:49;;;;;;;11.50;6.70;;;;;;;;;;5076476;28;20021;-55
2024/03/07 02:38:15;;;;;;;11.85;6.95;;;;;;;;;;5076506;28;20032;-50
2024/03/07 02:40:41;;;;;;;11.55;6.72;;;;;;;;;;5076323;28;20074;-51
2024/03/07 02:43:07;;;;;;;11.55;6.80;;;;;;;;;;5075676;28;20078;-52
2024/03/07 02:45:33;;;;;;;11.07;6.50;;;;;;;;;;5076455;28;20571;-51
2024/03/07 02:47:59;;;;;;;11.40;6.70;;;;;;;;;;5058513;28;20035;-50
2024/03/07 02:50:25;;;;;;;11.30;6.60;;;;;;;;;;5076582;28;20043;-46
2024/03/07 02:52:52;;;;;;;11.50;6.70;;;;;;;;;;5075803;28;20029;-54
2024/03/07 02:55:18;;;;;;;11.50;6.70;;;;;;;;;;5058526;28;20074;-51
2024/03/07 02:57:45;;;;;;;11.95;6.95;;;;;;;;;;5076524;28;20025;-50
2024/03/07 03:00:26;;;;;;;11.68;6.80;;;;;;;;;;5058607;28;20021;-53
2024/03/07 03:02:52;;;;;;;11.60;6.72;;;;;;;;;;5076061;28;20517;-51
2024/03/07 03:05:18;;;;;;;11.40;6.68;;;;;;;;;;5076693;28;20025;-48
2024/03/07 03:07:52;;;;;;;11.43;6.70;;;;;;;;;;5076760;28;20028;-52
2024/03/07 03:10:18;;;;;;;12.30;7.60;;;;;;;;;;5058244;28;20437;-51
2024/03/07 03:12:44;;;;;;;11.18;6.55;;;;;;;;;;5075483;28;20032;-52
2024/03/07 03:15:11;;;;;;;11.20;6.60;;;;;;;;;;5076344;28;20016;-50
2024/03/07 03:17:37;;;;;;;11.30;6.63;;;;;;;;;;5076213;28;20414;-52
2024/03/07 03:20:15;;;;;;;12.18;7.18;;;;;;;;;;5058109;28;20081;-50
2024/03/07 03:22:43;;;;;;;11.30;6.60;;;;;;;;;;5075594;28;20482;-56
2024/03/07 03:25:10;;;;;;;11.27;6.75;;;;;;;;;;5076165;28;20024;-51
2024/03/07 03:27:36;;;;;;;11.70;6.80;;;;;;;;;;5076383;28;20024;-48
2024/03/07 03:30:04;;;;;;;11.88;6.90;;;;;;;;;;5076028;28;20086;-51
2024/03/07 03:32:30;;;;;;;11.55;6.80;;;;;;;;;;5071943;28;20030;-54
2024/03/07 03:34:56;;;;;;;11.93;7.20;;;;;;;;;;5072771;28;20028;-50
2024/03/07 03:37:21;;;;;;;11.45;6.72;;;;;;;;;;5072915;28;20032;-53
2024/03/07 03:39:49;;;;;;;11.75;6.90;;;;;;;;;;5072671;28;20016;-50
2024/03/07 03:42:15;;;;;;;12.40;8.38;;;;;;;;;;5072037;28;20017;-48
2024/03/07 03:44:41;;;;;;;15.70;8.00;;;;;;;;;;5054931;28;20031;-50
2024/03/07 03:47:07;;;;;;;12.60;7.80;;;;;;;;;;5072837;28;20095;-51
2024/03/07 03:49:33;;;;;;;16.30;8.20;;;;;;;;;;5072429;28;20049;-50
2024/03/07 03:51:59;;;;;;;11.98;8.55;;;;;;;;;;5072369;28;20483;-51
2024/03/07 03:54:25;;;;;;;12.00;7.30;;;;;;;;;;5072304;28;20069;-49
2024/03/07 03:56:51;;;;;;;11.60;6.80;;;;;;;;;;5072711;28;20071;-48
2024/03/07 03:59:18;;;;;;;11.55;6.90;;;;;;;;;;5072357;28;20544;-51
2024/03/07 04:01:45;;;;;;;11.82;6.90;;;;;;;;;;5072384;28;20017;-48
2024/03/07 04:04:11;;;;;;;11.80;7.10;;;;;;;;;;5054300;28;20439;-52
2024/03/07 04:06:37;;;;;;;12.05;7.35;;;;;;;;;;5072605;28;20087;-50
2024/03/07 04:09:04;;;;;;;12.93;7.60;;;;;;;;;;5054449;28;20064;-50
2024/03/07 04:11:30;;;;;;;11.88;6.90;;;;;;;;;;5054569;28;20020;-52
2024/03/07 04:13:56;;;;;;;11.82;6.93;;;;;;;;;;5072145;28;20478;-53
2024/03/07 04:16:22;;;;;;;11.57;6.75;;;;;;;;;;5072609;28;20032;-54
2024/03/07 04:18:48;;;;;;;14.68;7.82;;;;;;;;;;5072162;28;20025;-52
2024/03/07 04:21:14;;;;;;;11.35;6.80;;;;;;;;;;5072229;28;20086;-52
2024/03/07 04:23:41;;;;;;;11.02;6.47;;;;;;;;;;5080199;28;20043;-51
2024/03/07 04:26:08;;;;;;;11.38;6.70;;;;;;;;;;5092603;28;20020;-51
2024/03/07 04:28:34;;;;;;;11.40;6.70;;;;;;;;;;5092353;28;20036;-50
2024/03/07 04:31:00;;;;;;;11.52;6.75;;;;;;;;;;5092249;28;20077;-48
2024/03/07 04:33:26;;;;;;;11.38;6.68;;;;;;;;;;5091829;28;20028;-50
2024/03/07 04:35:52;;;;;;;11.93;6.93;;;;;;;;;;5074232;28;20049;-54
2024/03/07 04:38:18;;;;;;;11.65;6.80;;;;;;;;;;5092455;28;20028;-49
2024/03/07 04:40:44;;;;;;;11.38;6.68;;;;;;;;;;5092432;28;20020;-49
2024/03/07 04:43:11;;;;;;;12.07;7.03;;;;;;;;;;5072690;28;20024;-48
2024/03/07 04:45:37;;;;;;;12.52;7.30;;;;;;;;;;5092430;28;20020;-48
2024/03/07 04:48:03;;;;;;;12.20;7.10;;;;;;;;;;5092622;28;20028;-49
2024/03/07 04:50:29;;;;;;;12.45;7.30;;;;;;;;;;5092464;28;20533;-49
2024/03/07 04:52:55;;;;;;;12.25;7.10;;;;;;;;;;5091480;28;20022;-48
2024/03/07 04:55:21;;;;;;;12.00;6.97;;;;;;;;;;5092046;28;20020;-47
2024/03/07 04:57:47;;;;;;;12.25;7.13;;;;;;;;;;5091674;28;20024;-52
2024/03/07 05:00:14;;;;;;;12.23;7.10;;;;;;;;;;5091634;28;20026;-50
2024/03/07 05:02:41;;;;;;;12.15;7.10;;;;;;;;;;5090723;28;20059;-47
2024/03/07 05:05:07;;;;;;;12.20;7.07;;;;;;;;;;5091402;28;20020;-50
2024/03/07 05:07:35;;;;;;;12.60;7.32;;;;;;;;;;5091220;28;20081;-48
2024/03/07 05:10:01;;;;;;;12.23;7.15;;;;;;;;;;5091404;28;20478;-47
2024/03/07 05:12:27;;;;;;;12.38;7.18;;;;;;;;;;5090564;28;20531;-49
2024/03/07 05:14:53;;;;;;;12.27;7.13;;;;;;;;;;5091315;28;20024;-48
2024/03/07 05:17:19;;;;;;;12.30;7.20;;;;;;;;;;5072913;28;20051;-50
2024/03/07 05:19:47;;;;;;;13.45;10.27;;;;;;;;;;5072913;28;20062;-50
2024/03/07 05:22:15;;;;;;;12.00;7.00;;;;;;;;;;5090472;28;20020;-47
2024/03/07 05:24:42;;;;;;;12.05;7.10;;;;;;;;;;5073197;28;20016;-49
2024/03/07 05:27:11;;;;;;;12.30;7.15;;;;;;;;;;5073697;28;20031;-51
2024/03/07 05:29:37;;;;;;;12.07;7.05;;;;;;;;;;5091337;28;20504;-47
2024/03/07 05:32:22;;;;;;;11.80;6.90;;;;;;;;;;5090650;28;20020;-54
2024/03/07 05:34:48;;;;;;;12.00;7.00;;;;;;;;;;5091244;28;20027;-52
2024/03/07 05:37:14;;;;;;;11.82;6.82;;;;;;;;;;5090843;28;20028;-50
2024/03/07 05:39:40;;;;;;;12.02;7.40;;;;;;;;;;5090949;28;20393;-50
2024/03/07 05:42:07;;;;;;;12.48;7.30;;;;;;;;;;5090245;28;20109;-56
2024/03/07 05:44:33;;;;;;;12.02;7.07;;;;;;;;;;5090766;28;20031;-48
2024/03/07 05:46:59;;;;;;;12.80;7.50;;;;;;;;;;5090556;28;20617;-49
2024/03/07 05:49:25;;;;;;;12.55;7.30;;;;;;;;;;5090576;28;20082;-54
2024/03/07 05:51:51;;;;;;;12.88;7.50;;;;;;;;;;5072355;28;20024;-54
2024/03/07 05:54:17;;;;;;;12.48;7.50;;;;;;;;;;5071482;28;20433;-50
2024/03/07 05:56:43;;;;;;;12.57;7.35;;;;;;;;;;5090431;28;20039;-51
2024/03/07 05:59:09;;;;;;;12.48;7.30;;;;;;;;;;5090371;28;20024;-50
2024/03/07 06:01:39;;;;;;;12.60;7.40;;;;;;;;;;5090122;28;20031;-49
2024/03/07 06:04:06;;;;;;;12.30;7.10;;;;;;;;;;5090444;28;20027;-49
2024/03/07 06:06:32;;;;;;;11.77;6.88;;;;;;;;;;5090587;28;20031;-52
2024/03/07 06:09:08;;;;;;;12.00;7.00;;;;;;;;;;5090302;28;20504;-53
2024/03/07 06:11:43;;;;;;;11.52;6.75;;;;;;;;;;5089936;28;20057;-51
2024/03/07 06:14:13;;;;;;;11.85;7.00;;;;;;;;;;5089620;28;20134;-52
2024/03/07 06:16:39;;;;;;;11.35;6.60;;;;;;;;;;5090272;28;20051;-52
2024/03/07 06:19:09;;;;;;;11.52;6.72;;;;;;;;;;5089925;28;20031;-51
2024/03/07 06:21:37;;;;;;;11.55;6.80;;;;;;;;;;5089631;28;20030;-49
2024/03/07 06:24:03;;;;;;;11.68;6.80;;;;;;;;;;5089411;28;20470;-47
2024/03/07 06:26:59;;;;;;;11.38;6.70;;;;;;;;;;5089877;28;20069;-47
2024/03/07 06:29:22;;;;;;;11.23;6.60;;;;;;;;;;5104314;22;20045;-52
2024/03/07 06:31:48;;;;;;;11.38;6.65;;;;;;;;;;5035119;28;20037;-57
2024/03/07 06:34:14;;;;;;;11.38;6.75;;;;;;;;;;5045056;28;20387;-54
2024/03/07 06:36:43;;;;;;;11.27;6.60;;;;;;;;;;5028673;28;20095;-58
2024/03/07 06:39:12;;;;;;;11.25;6.60;;;;;;;;;;5034658;28;20088;-56
2024/03/07 06:41:38;;;;;;;11.68;6.80;;;;;;;;;;5046757;28;20087;-54
2024/03/07 06:44:04;;;;;;;11.25;6.60;;;;;;;;;;5048000;28;20048;-56
2024/03/07 06:46:32;;;;;;;11.45;6.70;;;;;;;;;;5048200;28;20058;-57
2024/03/07 06:48:58;;;;;;;11.80;6.90;;;;;;;;;;5031156;28;20088;-59
2024/03/07 06:51:24;;;;;;;12.40;7.68;;;;;;;;;;5028202;28;20025;-56
2024/03/07 06:53:51;;;;;;;11.55;6.80;;;;;;;;;;5027929;28;20022;-58
2024/03/07 06:56:17;;;;;;;11.82;6.90;;;;;;;;;;5028573;28;20034;-57
2024/03/07 06:58:45;;;;;;;12.20;7.43;;;;;;;;;;5027986;28;20040;-56
2024/03/07 07:01:15;;;;;;;12.18;7.07;;;;;;;;;;5028005;28;20025;-55
2024/03/07 07:03:43;;;;;;;12.07;7.10;;;;;;;;;;5027907;28;20403;-59
2024/03/07 07:06:10;;;;;;;12.48;7.20;;;;;;;;;;5046472;28;20184;-59
2024/03/07 07:08:36;;;;;;;12.07;7.03;;;;;;;;;;5051965;28;20474;-57
2024/03/07 07:11:03;;;;;;;11.77;6.90;;;;;;;;;;5051568;28;20375;-58
2024/03/07 07:13:29;;;;;;;12.05;7.00;;;;;;;;;;5051033;28;20021;-56
2024/03/07 07:15:55;;;;;;;12.32;7.22;;;;;;;;;;5051971;28;20399;-53
2024/03/07 07:18:23;;;;;;;12.40;7.20;;;;;;;;;;5050084;28;20025;-57
2024/03/07 07:20:51;;;;;;;13.88;8.23;;;;;;;;;;5051748;28;20052;-57
2024/03/07 07:23:18;;;;;;;12.63;7.35;;;;;;;;;;5049178;28;20020;-55
2024/03/07 07:25:44;;;;;;;14.70;9.52;;;;;;;;;;5051427;28;20027;-57
2024/03/07 07:28:11;;;;;;;12.65;7.40;;;;;;;;;;5051231;28;20108;-56
2024/03/07 07:30:37;;;;;;;12.98;7.53;;;;;;;;;;5048852;28;20075;-55
2024/03/07 07:33:03;;;;;;;13.13;7.90;;;;;;;;;;5030731;28;20075;-56
2024/03/07 07:35:29;;;;;;;13.38;8.00;;;;;;;;;;5030614;28;20029;-57
2024/03/07 07:37:55;;;;;;;13.52;8.38;;;;;;;;;;5031305;28;20109;-55
2024/03/07 07:40:22;;;;;;;13.50;8.52;;;;;;;;;;5030752;28;20089;-56
2024/03/07 07:42:51;;;;;;;18.23;9.40;;;;;;;;;;5029828;28;20056;-56
2024/03/07 07:45:17;;;;;;;13.27;7.95;;;;;;;;;;5030710;28;20430;-57
2024/03/07 07:47:43;;;;;;;13.52;8.70;;;;;;;;;;5030364;28;20029;-56
2024/03/07 07:50:14;;;;;;;13.55;8.48;;;;;;;;;;5030398;28;20029;-53
2024/03/07 07:52:44;;;;;;;13.48;8.27;;;;;;;;;;5030029;28;20594;-55
2024/03/07 07:55:14;;;;;;;13.50;8.27;;;;;;;;;;5031017;28;20080;-55
2024/03/07 07:57:41;;;;;;;14.27;8.88;;;;;;;;;;5030881;28;20423;-56
2024/03/07 08:00:09;;;;;;;13.48;8.20;;;;;;;;;;5030953;28;20467;-59
2024/03/07 08:02:35;;;;;;;13.35;8.07;;;;;;;;;;5030380;28;20028;-59
2024/03/07 08:05:03;;;;;;;13.32;7.90;;;;;;;;;;5030485;28;20379;-54
2024/03/07 08:07:29;;;;;;;13.30;7.97;;;;;;;;;;5030804;28;20025;-54
2024/03/07 08:09:56;;;;;;;13.45;8.18;;;;;;;;;;5030393;28;20463;-55
2024/03/07 08:12:22;;;;;;;13.40;8.23;;;;;;;;;;5029829;28;20509;-56
2024/03/07 08:14:50;;;;;;;13.32;7.95;;;;;;;;;;5030526;28;20033;-56
2024/03/07 08:17:16;;;;;;;13.27;7.88;;;;;;;;;;5030781;28;20036;-57
2024/03/07 08:19:43;;;;;;;13.15;7.70;;;;;;;;;;5030895;28;20096;-54
2024/03/07 08:22:09;;;;;;;13.15;7.93;;;;;;;;;;5030266;28;20105;-57
2024/03/07 08:24:35;;;;;;;13.60;8.63;;;;;;;;;;5031042;28;20044;-57
2024/03/07 08:27:02;;;;;;;13.55;8.90;;;;;;;;;;5031044;28;20025;-57
2024/03/07 08:29:28;;;;;;;13.35;7.95;;;;;;;;;;5030717;28;20034;-55
2024/03/07 08:31:54;;;;;;;13.80;8.45;;;;;;;;;;5031127;28;20146;-63
2024/03/07 08:34:20;;;;;;;13.45;8.25;;;;;;;;;;5030431;28;20025;-57
2024/03/07 08:36:47;;;;;;;13.57;8.60;;;;;;;;;;5030680;28;20460;-55
2024/03/07 08:39:13;;;;;;;13.52;8.40;;;;;;;;;;5029039;28;20116;-50
2024/03/07 08:41:42;;;;;;;13.32;8.10;;;;;;;;;;5030256;28;20495;-56
2024/03/07 08:44:09;;;;;;;13.50;8.30;;;;;;;;;;5030088;28;20033;-51
2024/03/07 08:46:35;;;;;;;13.40;8.30;;;;;;;;;;5030835;28;20029;-55
2024/03/07 08:49:01;;;;;;;13.57;8.60;;;;;;;;;;5030325;28;20029;-51
2024/03/07 08:51:27;;;;;;;13.57;8.60;;;;;;;;;;5030237;28;20040;-54
2024/03/07 08:53:53;;;;;;;13.50;8.50;;;;;;;;;;5029846;28;20096;-52
2024/03/07 08:56:19;;;;;;;13.57;8.50;;;;;;;;;;5030284;28;20103;-50
2024/03/07 08:58:45;;;;;;;13.52;8.48;;;;;;;;;;5030021;28;20586;-52
2024/03/07 09:01:11;;;;;;;13.52;8.50;;;;;;;;;;5029017;28;20022;-51
2024/03/07 09:03:37;;;;;;;15.82;9.65;;;;;;;;;;5029436;28;20029;-50
2024/03/07 09:06:04;;;;;;;13.27;8.05;;;;;;;;;;5029813;28;20041;-52
2024/03/07 09:08:30;;;;;;;13.63;8.75;;;;;;;;;;5030007;28;20048;-50
2024/03/07 09:10:56;;;;;;;13.60;8.73;;;;;;;;;;5029919;28;20444;-49
2024/03/07 09:13:22;;;;;;;13.45;8.23;;;;;;;;;;5029186;28;20018;-49
2024/03/07 09:15:48;;;;;;;13.40;8.27;;;;;;;;;;5029892;28;20029;-50
2024/03/07 09:18:14;;;;;;;13.52;8.50;;;;;;;;;;5029595;28;20044;-48
2024/03/07 09:20:41;;;;;;;13.40;8.10;;;;;;;;;;5049527;28;20028;-51
2024/03/07 09:23:07;;;;;;;13.48;8.27;;;;;;;;;;5049311;28;20111;-49
2024/03/07 09:25:34;;;;;;;13.57;8.68;;;;;;;;;;5049419;28;20025;-49
2024/03/07 09:28:00;;;;;;;13.63;8.82;;;;;;;;;;5049250;28;20104;-50
2024/03/07 09:30:27;;;;;;;13.98;9.70;;;;;;;;;;5048401;28;20112;-50
2024/03/07 09:32:57;;;;;;;13.57;8.70;;;;;;;;;;5037204;28;20065;-49
2024/03/07 09:35:23;;;;;;;13.65;8.88;;;;;;;;;;5029338;28;20416;-49
2024/03/07 09:37:49;;;;;;;13.60;8.80;;;;;;;;;;5044848;28;20440;-50
2024/03/07 09:40:15;;;;;;;13.63;8.85;;;;;;;;;;5048889;28;20080;-51
2024/03/07 09:42:45;;;;;;;22.60;11.55;;;;;;;;;;5036594;28;20018;-48
2024/03/07 09:45:16;;;;;;;13.80;9.10;;;;;;;;;;5028947;28;20021;-55
2024/03/07 09:47:43;;;;;;;13.57;8.63;;;;;;;;;;5028951;28;20456;-55
2024/03/07 09:50:09;;;;;;;13.63;8.80;;;;;;;;;;5028710;28;20033;-55
2024/03/07 09:52:36;;;;;;;13.60;8.73;;;;;;;;;;5028035;28;20064;-55
2024/03/07 09:55:02;;;;;;;13.60;8.70;;;;;;;;;;5028874;28;20072;-56
2024/03/07 09:57:29;;;;;;;13.55;8.57;;;;;;;;;;5028844;28;20464;-56
2024/03/07 09:59:55;;;;;;;13.55;8.45;;;;;;;;;;5027293;28;20482;-56
2024/03/07 10:02:22;;;;;;;14.45;9.75;;;;;;;;;;5027891;28;20029;-59
2024/03/07 10:04:52;;;;;;;13.60;8.65;;;;;;;;;;5028529;28;20164;-54
2024/03/07 10:07:18;;;;;;;13.60;8.68;;;;;;;;;;5028574;28;20556;-55
2024/03/07 10:09:45;;;;;;;13.57;8.55;;;;;;;;;;5028467;28;20047;-56
2024/03/07 10:12:15;;;;;;;15.57;10.15;;;;;;;;;;5027843;28;20025;-56
2024/03/07 10:14:49;;;;;;;14.38;9.13;;;;;;;;;;5028547;28;20025;-54
2024/03/07 10:17:15;;;;;;;14.48;11.35;;;;;;;;;;5028274;28;20103;-57
2024/03/07 10:19:41;;;;;;;13.80;9.45;;;;;;;;;;5027932;28;20456;-56
2024/03/07 10:22:07;;;;;;;13.40;8.10;;;;;;;;;;5027799;28;20085;-52
2024/03/07 10:24:33;;;;;;;14.20;9.30;;;;;;;;;;5028657;28;20403;-57
2024/03/07 10:27:00;;;;;;;13.45;8.43;;;;;;;;;;5028577;28;20036;-56
2024/03/07 10:29:27;;;;;;;13.45;8.27;;;;;;;;;;5028331;28;20492;-56
2024/03/07 10:31:53;;;;;;;13.50;8.40;;;;;;;;;;5025547;28;20466;-52
2024/03/07 10:34:19;;;;;;;13.80;8.90;;;;;;;;;;5026665;28;20041;-54
2024/03/07 10:36:46;;;;;;;13.48;8.35;;;;;;;;;;5028049;28;20099;-57
2024/03/07 10:39:15;;;;;;;13.50;8.48;;;;;;;;;;5028425;28;20038;-57
2024/03/07 10:41:50;;;;;;;15.88;10.90;;;;;;;;;;5031263;28;20018;-57
2024/03/07 10:44:21;;;;;;;13.40;8.13;;;;;;;;;;5031790;28;20190;-58
2024/03/07 10:46:52;;;;;;;13.45;8.38;;;;;;;;;;5030743;28;20060;-57
2024/03/07 10:49:21;;;;;;;15.65;9.50;;;;;;;;;;5032248;28;20538;-56
2024/03/07 10:51:50;;;;;;;14.73;9.55;;;;;;;;;;5031754;28;20059;-54
2024/03/07 10:54:16;;;;;;;;;;;;;;;;;;5031937;28;20040;-54
2024/03/07 10:56:48;;;;;;;13.55;8.50;;;;;;;;;;5031426;28;19909;-53
2024/03/07 10:59:18;;;;;;;13.43;8.10;;;;;;;;;;5031341;28;20511;-56
2024/03/07 11:01:50;;;;;;;13.52;8.60;;;;;;;;;;5030762;28;20036;-56
2024/03/07 11:04:17;;;;;;;15.63;8.75;;;;;;;;;;5030572;28;20021;-59
2024/03/07 11:06:44;;;;;;;13.50;8.40;;;;;;;;;;5031035;28;20391;-55
2024/03/07 11:09:11;;;;;;;13.47;8.20;;;;;;;;;;5031059;28;20437;-54
2024/03/07 11:11:40;;;;;;;13.52;8.40;;;;;;;;;;5031002;28;20075;-59
2024/03/07 11:14:06;;;;;;;19.38;13.27;;;;;;;;;;5030570;28;20048;-55
2024/03/07 11:16:33;;;;;;;13.38;8.25;;;;;;;;;;5031490;28;20084;-56
2024/03/07 11:19:19;;;;;;;14.40;9.70;;;;;;;;;;5030005;28;20416;-53
2024/03/07 11:21:45;;;;;;;15.82;10.80;;;;;;;;;;5029580;28;20067;-57
2024/03/07 11:24:22;;;;;;;14.15;8.80;;;;;;;;;;5031050;28;20111;-58
2024/03/07 11:26:48;;;;;;;13.48;8.43;;;;;;;;;;5031039;28;20026;-56
2024/03/07 11:29:33;;;;;;;13.27;7.95;;;;;;;;;;5031384;28;20041;-57
2024/03/07 11:31:59;;;;;;;13.52;8.50;;;;;;;;;;5031013;28;20029;-56
2024/03/07 11:34:30;;;;;;;18.52;9.48;;;;;;;;;;5030926;28;20025;-51
2024/03/07 11:36:59;;;;;;;13.45;8.18;;;;;;;;;;5030788;28;20091;-57
2024/03/07 11:39:43;;;;;;;16.08;11.07;;;;;;;;;;5030753;28;20102;-52
2024/03/07 11:42:10;;;;;;;14.73;9.35;;;;;;;;;;5030388;28;20148;-54
2024/03/07 11:44:39;;;;;;;13.40;8.07;;;;;;;;;;5031234;28;20348;-53
2024/03/07 11:47:08;;;;;;;14.88;10.68;;;;;;;;;;5031274;28;20030;-53
2024/03/07 11:49:37;;;;;;;13.45;8.20;;;;;;;;;;5030819;28;20033;-55
2024/03/07 11:52:04;;;;;;;16.27;9.77;;;;;;;;;;5029779;28;20067;-59
2024/03/07 11:54:31;;;;;;;17.08;11.13;;;;;;;;;;5030325;28;20029;-51
2024/03/07 11:56:57;;;;;;;13.52;8.40;;;;;;;;;;5030817;28;20100;-55
2024/03/07 11:59:23;;;;;;;13.60;7.80;;;;;;;;;;5031075;28;20095;-55
2024/03/07 12:01:49;;;;;;;13.40;8.20;;;;;;;;;;5030069;28;20049;-54
2024/03/07 12:04:16;;;;;;;13.27;7.85;;;;;;;;;;5029789;28;20025;-56
2024/03/07 12:06:50;;;;;;;14.88;9.68;;;;;;;;;;5030703;28;20066;-60
2024/03/07 12:09:23;;;;;;;13.38;7.90;;;;;;;;;;5030439;28;20028;-57
2024/03/07 12:11:52;;;;;;;20.15;10.65;;;;;;;;;;5029757;28;20120;-59
2024/03/07 12:14:19;;;;;;;12.82;7.50;;;;;;;;;;5030325;28;20021;-58
2024/03/07 12:16:45;;;;;;;15.77;9.10;;;;;;;;;;5031126;28;20028;-57
2024/03/07 12:19:11;;;;;;;12.95;7.60;;;;;;;;;;5030255;28;20069;-59
2024/03/07 12:21:38;;;;;;;14.43;8.90;;;;;;;;;;5029961;28;20079;-59
2024/03/07 12:24:14;;;;;;;14.60;7.88;;;;;;;;;;5030038;28;20025;-57
2024/03/07 12:26:40;;;;;;;13.25;7.80;;;;;;;;;;5030014;28;20092;-54
2024/03/07 12:29:11;;;;;;;15.27;9.45;;;;;;;;;;5030008;28;20041;-55
2024/03/07 12:31:42;;;;;;;13.38;8.07;;;;;;;;;;5029488;28;20056;-58
2024/03/07 12:34:11;;;;;;;16.10;9.77;;;;;;;;;;5029897;28;20475;-57
2024/03/07 12:36:46;;;;;;;12.13;7.05;;;;;;;;;;5030347;28;20045;-57
2024/03/07 12:39:25;;;;;;;12.70;7.60;;;;;;;;;;5030896;28;20417;-56
2024/03/07 12:41:55;;;;;;;12.38;7.20;;;;;;;;;;5029576;28;20104;-56
2024/03/07 12:44:21;;;;;;;14.65;9.55;;;;;;;;;;5030261;28;20060;-57
2024/03/07 12:46:56;;;;;;;13.25;7.85;;;;;;;;;;5029781;28;20021;-56
2024/03/07 12:49:29;;;;;;;13.23;7.78;;;;;;;;;;5029879;28;20486;-53
2024/03/07 12:51:56;;;;;;;13.45;8.23;;;;;;;;;;5029945;28;20025;-56
2024/03/07 12:54:23;;;;;;;13.40;8.10;;;;;;;;;;5029706;28;20116;-59
2024/03/07 12:56:52;;;;;;;13.45;8.35;;;;;;;;;;5029602;28;20068;-56
2024/03/07 12:59:19;;;;;;;13.50;8.43;;;;;;;;;;5029345;28;20080;-57
2024/03/07 13:01:47;;;;;;;13.65;8.82;;;;;;;;;;5029095;28;20037;-58
2024/03/07 13:04:14;;;;;;;13.50;8.38;;;;;;;;;;5026978;28;20029;-54
2024/03/07 13:06:43;;;;;;;14.02;9.45;;;;;;;;;;5028274;28;20025;-54
2024/03/07 13:09:11;;;;;;;13.60;8.70;;;;;;;;;;5027469;28;20021;-63
2024/03/07 13:11:42;;;;;;;14.15;8.95;;;;;;;;;;5026896;28;20017;-54
2024/03/07 13:14:09;;;;;;;13.80;9.10;;;;;;;;;;5026429;28;20026;-57
2024/03/07 13:16:35;;;;;;;13.70;8.50;;;;;;;;;;5025821;28;20117;-56
2024/03/07 13:19:04;;;;;;;14.35;9.38;;;;;;;;;;5027665;28;20485;-53
2024/03/07 13:21:31;;;;;;;;;;;;;;;;;;5029599;28;20439;-51
2024/03/07 13:23:58;;;;;;;14.10;10.55;;;;;;;;;;5028888;28;19912;-53
2024/03/07 13:26:25;;;;;;;13.60;8.80;;;;;;;;;;5028887;28;20041;-57
2024/03/07 13:28:53;;;;;;;13.32;8.02;;;;;;;;;;5029064;28;20395;-57
2024/03/07 13:31:19;;;;;;;13.05;7.57;;;;;;;;;;5028412;28;20037;-55
2024/03/07 13:33:45;;;;;;;14.77;9.30;;;;;;;;;;5028275;28;20061;-55
2024/03/07 13:36:11;;;;;;;13.55;8.52;;;;;;;;;;5028870;28;20432;-55
2024/03/07 13:38:38;;;;;;;13.20;8.25;;;;;;;;;;5028812;28;20112;-55
2024/03/07 13:41:04;;;;;;;15.95;10.40;;;;;;;;;;5028403;28;20044;-57
2024/03/07 13:43:33;;;;;;;14.00;8.30;;;;;;;;;;5028145;28;20025;-57
2024/03/07 13:46:00;;;;;;;13.20;7.80;;;;;;;;;;5028371;28;20017;-56
2024/03/07 13:48:26;;;;;;;13.25;7.85;;;;;;;;;;5028389;28;20474;-53
2024/03/07 13:50:53;;;;;;;14.77;8.00;;;;;;;;;;5027188;28;20032;-58
2024/03/07 13:55:51;;;;;;;15.55;12.43;;;;;;;;;;5028836;28;20029;-54
2024/03/07 13:58:33;;;;;;;13.48;8.30;;;;;;;;;;5028675;28;20104;-56
2024/03/07 14:01:20;;;;;;;14.10;9.10;;;;;;;;;;5028433;28;20021;-58
2024/03/07 14:03:50;;;;;;;20.38;15.93;;;;;;;;;;5028532;28;20498;-55
2024/03/07 14:06:54;;;;;;;13.77;9.18;;;;;;;;;;5028833;28;20021;-53
2024/03/07 14:09:39;;;;;;;13.93;9.27;;;;;;;;;;4966854;28;20031;-57
2024/03/07 14:12:15;;;;;;;13.90;9.48;;;;;;;;;;4978711;28;20090;-59
2024/03/07 14:15:00;;;;;;;15.55;11.07;;;;;;;;;;5025339;28;20045;-60
2024/03/07 14:17:28;;;;;;;16.70;10.30;;;;;;;;;;5047772;28;20123;-58
2024/03/07 14:20:22;;;;;;;13.90;9.40;;;;;;;;;;5048267;28;20057;-54
2024/03/07 14:22:50;;;;;;;13.77;9.10;;;;;;;;;;5047786;28;20402;-55
2024/03/07 14:25:42;;;;;;;13.82;9.35;;;;;;;;;;5048336;28;20017;-57
2024/03/07 14:28:14;;;;;;;13.73;9.05;;;;;;;;;;5045977;28;20041;-57
2024/03/07 14:30:53;;;;;;;14.38;8.90;;;;;;;;;;5047653;28;20048;-58
2024/03/07 14:33:20;;;;;;;13.88;9.55;;;;;;;;;;5032294;28;20026;-60
2024/03/07 14:36:03;;;;;;;14.75;10.10;;;;;;;;;;5027994;28;20379;-57
2024/03/07 14:38:43;;;;;;;14.20;9.93;;;;;;;;;;5027075;28;20357;-57